createdAt,value
2018-02-17T00:00:46.167Z,92.57
2018-02-17T00:01:46.630Z,92.10
2018-02-17T00:02:45.527Z,92.38
2018-02-17T00:03:45.511Z,92.38
2018-02-17T00:04:45.494Z,92.57
2018-02-17T00:05:45.490Z,92.00
2018-02-17T00:06:45.454Z,92.29
2018-02-17T00:07:45.450Z,92.10
2018-02-17T00:08:45.414Z,91.15
2018-02-17T00:09:45.396Z,91.34
2018-02-17T00:10:45.377Z,91.81
2018-02-17T00:11:45.383Z,91.15
2018-02-17T00:12:45.340Z,91.24
2018-02-17T00:13:45.317Z,91.81
2018-02-17T00:14:45.298Z,91.81
2018-02-17T00:15:45.302Z,91.81
2018-02-17T00:16:45.267Z,91.53
2018-02-17T00:17:45.246Z,91.81
2018-02-17T00:18:45.227Z,91.34
2018-02-17T00:19:45.211Z,91.34
2018-02-17T00:20:45.188Z,91.72
2018-02-17T00:21:45.185Z,91.72
2018-02-17T00:22:45.154Z,91.15
2018-02-17T00:23:45.135Z,91.15
2018-02-17T00:24:45.119Z,91.34
2018-02-17T00:25:45.097Z,91.05
2018-02-17T00:26:45.093Z,91.05
2018-02-17T00:27:45.061Z,91.05
2018-02-17T00:28:45.046Z,91.81
2018-02-17T00:29:45.021Z,91.72
2018-02-17T00:30:45.004Z,91.15
2018-02-17T00:31:44.985Z,90.96
2018-02-17T00:32:44.980Z,90.96
2018-02-17T00:33:44.946Z,91.81
2018-02-17T00:34:44.931Z,91.77
2018-02-17T00:35:44.911Z,91.96
2018-02-17T00:36:44.906Z,91.77
2018-02-17T00:37:44.880Z,92.43
2018-02-17T00:38:44.870Z,92.52
2018-02-17T00:39:44.833Z,92.43
2018-02-17T00:40:44.812Z,92.43
2018-02-17T00:41:44.802Z,92.43
2018-02-17T00:42:44.776Z,92.90
2018-02-17T00:43:44.772Z,92.99
2018-02-17T00:44:44.744Z,92.52
2018-02-17T00:45:44.719Z,92.94
2018-02-17T00:46:44.698Z,93.42
2018-02-17T00:47:44.685Z,94.18
2018-02-17T00:48:44.677Z,94.46
2018-02-17T00:49:44.661Z,94.23
2018-02-17T00:50:44.626Z,94.60
2018-02-17T00:51:44.644Z,94.18
2018-02-17T00:52:44.598Z,94.46
2018-02-17T00:53:44.571Z,94.56
2018-02-17T00:54:44.555Z,94.46
2018-02-17T00:55:44.546Z,94.27
2018-02-17T00:56:44.515Z,94.27
2018-02-17T00:57:44.491Z,94.56
2018-02-17T00:58:44.476Z,94.18
2018-02-17T00:59:44.461Z,94.37
2018-02-17T01:00:44.452Z,94.46
2018-02-17T01:01:44.424Z,94.42
2018-02-17T01:02:44.402Z,94.79
2018-02-17T01:03:44.379Z,94.32
2018-02-17T01:04:44.377Z,94.42
2018-02-17T01:05:44.342Z,94.32
2018-02-17T01:06:44.335Z,94.60
2018-02-17T01:07:44.304Z,94.42
2018-02-17T01:08:44.287Z,94.23
2018-02-17T01:09:44.267Z,94.13
2018-02-17T01:10:44.259Z,94.32
2018-02-17T01:11:44.229Z,93.37
2018-02-17T01:12:44.213Z,93.56
2018-02-17T01:13:44.190Z,93.94
2018-02-17T01:14:44.186Z,93.75
2018-02-17T01:15:44.149Z,93.37
2018-02-17T01:16:44.147Z,93.66
2018-02-17T01:17:44.112Z,93.09
2018-02-17T01:18:44.093Z,93.18
2018-02-17T01:19:44.077Z,92.90
2018-02-17T01:20:44.057Z,92.71
2018-02-17T01:21:44.036Z,92.05
2018-02-17T01:22:44.031Z,92.05
2018-02-17T01:23:43.997Z,92.61
2018-02-17T01:24:43.981Z,91.96
2018-02-17T01:25:43.959Z,91.86
2018-02-17T01:26:43.958Z,92.14
2018-02-17T01:27:43.917Z,91.67
2018-02-17T01:28:43.902Z,92.33
2018-02-17T01:29:43.880Z,91.39
2018-02-17T01:30:43.861Z,90.91
2018-02-17T01:31:43.842Z,91.29
2018-02-17T01:32:43.842Z,90.91
2018-02-17T01:33:43.807Z,90.96
2018-02-17T01:34:43.782Z,91.20
2018-02-17T01:35:43.764Z,91.05
2018-02-17T01:36:43.747Z,90.82
2018-02-17T01:37:43.730Z,91.20
2018-02-17T01:38:43.722Z,90.91
2018-02-17T01:39:43.684Z,91.10
2018-02-17T01:40:43.670Z,91.39
2018-02-17T01:41:43.653Z,91.20
2018-02-17T01:42:43.634Z,91.20
2018-02-17T01:43:43.631Z,91.29
2018-02-17T01:44:43.593Z,91.10
2018-02-17T01:45:43.568Z,91.10
2018-02-17T01:46:43.549Z,91.01
2018-02-17T01:47:43.530Z,91.20
2018-02-17T01:48:43.515Z,91.86
2018-02-17T01:49:43.515Z,91.58
2018-02-17T01:50:43.478Z,91.29
2018-02-17T01:51:43.454Z,91.67
2018-02-17T01:52:43.439Z,91.67
2018-02-17T01:53:43.423Z,91.77
2018-02-17T01:54:43.416Z,92.61
2018-02-17T01:55:43.379Z,92.33
2018-02-17T01:56:43.358Z,92.80
2018-02-17T01:57:43.342Z,93.09
2018-02-17T01:58:43.322Z,93.18
2018-02-17T01:59:43.313Z,93.51
2018-02-17T02:00:43.301Z,93.42
2018-02-17T02:01:43.266Z,93.94
2018-02-17T02:02:43.246Z,94.13
2018-02-17T02:03:43.227Z,93.28
2018-02-17T02:04:43.206Z,93.09
2018-02-17T02:05:43.202Z,93.56
2018-02-17T02:06:43.177Z,93.47
2018-02-17T02:07:43.149Z,93.56
2018-02-17T02:08:43.128Z,93.56
2018-02-17T02:09:43.106Z,93.37
2018-02-17T02:10:43.084Z,93.32
2018-02-17T02:11:43.080Z,93.99
2018-02-17T02:12:43.063Z,94.08
2018-02-17T02:13:43.029Z,93.89
2018-02-17T02:14:43.003Z,93.70
2018-02-17T02:15:42.988Z,93.42
2018-02-17T02:16:42.967Z,93.89
2018-02-17T02:17:42.947Z,93.89
2018-02-17T02:18:43.736Z,94.18
2018-02-17T02:19:42.909Z,93.99
2018-02-17T02:20:42.891Z,93.99
2018-02-17T02:21:42.869Z,93.70
2018-02-17T02:22:42.848Z,93.51
2018-02-17T02:23:42.843Z,94.13
2018-02-17T02:24:42.807Z,92.99
2018-02-17T02:25:42.793Z,92.99
2018-02-17T02:26:42.766Z,92.90
2018-02-17T02:27:42.747Z,92.71
2018-02-17T02:28:42.730Z,92.33
2018-02-17T02:29:42.810Z,92.80
2018-02-17T02:30:42.694Z,92.61
2018-02-17T02:31:42.668Z,92.05
2018-02-17T02:32:42.647Z,91.86
2018-02-17T02:33:43.226Z,91.86
2018-02-17T02:34:43.704Z,92.05
2018-02-17T02:35:42.602Z,92.24
2018-02-17T02:36:42.566Z,92.80
2018-02-17T02:37:44.205Z,92.24
2018-02-17T02:38:42.524Z,92.43
2018-02-17T02:39:42.520Z,92.33
2018-02-17T02:40:42.486Z,92.66
2018-02-17T02:41:42.481Z,93.13
2018-02-17T02:42:42.445Z,92.76
2018-02-17T02:43:42.434Z,93.32
2018-02-17T02:44:42.405Z,93.89
2018-02-17T02:45:42.384Z,93.70
2018-02-17T02:46:42.380Z,93.61
2018-02-17T02:47:42.347Z,93.42
2018-02-17T02:48:42.325Z,93.61
2018-02-17T02:49:42.322Z,93.70
2018-02-17T02:50:42.284Z,93.32
2018-02-17T02:51:42.268Z,93.51
2018-02-17T02:52:42.264Z,93.89
2018-02-17T02:53:42.224Z,93.51
2018-02-17T02:54:42.201Z,94.08
2018-02-17T02:55:42.183Z,93.99
2018-02-17T02:56:42.180Z,94.37
2018-02-17T02:57:42.139Z,94.56
2018-02-17T02:58:42.121Z,94.56
2018-02-17T02:59:42.100Z,94.18
2018-02-17T03:00:42.082Z,95.03
2018-02-17T03:01:42.061Z,95.03
2018-02-17T03:02:42.062Z,94.65
2018-02-17T03:03:42.019Z,94.08
2018-02-17T03:04:42.002Z,94.74
2018-02-17T03:05:41.977Z,94.27
2018-02-17T03:06:41.960Z,94.27
2018-02-17T03:07:41.942Z,94.56
2018-02-17T03:08:41.934Z,93.99
2018-02-17T03:09:41.898Z,93.89
2018-02-17T03:10:41.882Z,94.08
2018-02-17T03:11:41.861Z,93.61
2018-02-17T03:13:03.709Z,93.66
2018-02-17T03:13:41.820Z,93.75
2018-02-17T03:14:41.800Z,93.94
2018-02-17T03:15:41.777Z,94.13
2018-02-17T03:16:41.775Z,93.94
2018-02-17T03:17:42.244Z,93.85
2018-02-17T03:18:41.715Z,93.56
2018-02-17T03:19:42.244Z,93.28
2018-02-17T03:20:41.682Z,93.28
2018-02-17T03:21:41.678Z,93.28
2018-02-17T03:22:41.658Z,93.47
2018-02-17T03:23:41.619Z,93.28
2018-02-17T03:24:41.601Z,93.28
2018-02-17T03:25:41.581Z,93.18
2018-02-17T03:26:43.211Z,93.47
2018-02-17T03:27:41.540Z,93.37
2018-02-17T03:28:41.534Z,93.47
2018-02-17T03:29:41.501Z,93.47
2018-02-17T03:30:41.481Z,93.66
2018-02-17T03:31:41.463Z,93.28
2018-02-17T03:32:41.459Z,94.04
2018-02-17T03:33:41.422Z,94.04
2018-02-17T03:34:41.402Z,94.04
2018-02-17T03:35:41.405Z,93.94
2018-02-17T03:36:41.362Z,93.47
2018-02-17T03:37:41.345Z,93.47
2018-02-17T03:38:41.340Z,93.37
2018-02-17T03:39:41.303Z,93.28
2018-02-17T03:40:41.279Z,93.94
2018-02-17T03:41:41.268Z,93.47
2018-02-17T03:42:41.246Z,94.04
2018-02-17T03:43:41.237Z,93.94
2018-02-17T03:44:41.205Z,93.32
2018-02-17T03:45:41.190Z,93.61
2018-02-17T03:46:41.165Z,93.51
2018-02-17T03:47:41.156Z,93.70
2018-02-17T03:48:41.136Z,93.61
2018-02-17T03:49:41.102Z,93.89
2018-02-17T03:50:41.087Z,94.18
2018-02-17T03:51:41.066Z,94.08
2018-02-17T03:52:43.716Z,94.08
2018-02-17T03:53:41.022Z,94.56
2018-02-17T03:54:41.743Z,94.27
2018-02-17T03:55:40.981Z,94.74
2018-02-17T03:56:40.961Z,94.65
2018-02-17T03:57:40.954Z,94.74
2018-02-17T03:58:40.943Z,94.65
2018-02-17T03:59:40.913Z,95.40
2018-02-17T04:00:40.882Z,95.31
2018-02-17T04:01:40.861Z,95.31
2018-02-17T04:02:40.854Z,95.21
2018-02-17T04:03:40.823Z,95.40
2018-02-17T04:04:40.814Z,95.31
2018-02-17T04:05:40.780Z,95.21
2018-02-17T04:06:40.775Z,95.31
2018-02-17T04:07:40.754Z,95.12
2018-02-17T04:08:40.725Z,95.03
2018-02-17T04:09:40.702Z,95.12
2018-02-17T04:10:40.680Z,95.12
2018-02-17T04:11:40.660Z,95.12
2018-02-17T04:12:40.637Z,95.12
2018-02-17T04:13:40.637Z,95.03
2018-02-17T04:14:40.595Z,95.21
2018-02-17T04:15:40.583Z,95.21
2018-02-17T04:16:40.561Z,95.31
2018-02-17T04:17:40.540Z,95.12
2018-02-17T04:18:40.519Z,95.31
2018-02-17T04:19:40.518Z,95.21
2018-02-17T04:20:40.480Z,94.93
2018-02-17T04:21:40.456Z,95.21
2018-02-17T04:22:40.433Z,94.93
2018-02-17T04:23:40.419Z,95.12
2018-02-17T04:24:40.414Z,95.21
2018-02-17T04:25:42.208Z,95.31
2018-02-17T04:26:40.357Z,95.21
2018-02-17T04:27:40.342Z,94.93
2018-02-17T04:28:40.318Z,95.21
2018-02-17T04:29:40.299Z,95.21
2018-02-17T04:30:40.293Z,94.74
2018-02-17T04:31:40.259Z,95.69
2018-02-17T04:32:40.241Z,95.40
2018-02-17T04:33:40.220Z,95.88
2018-02-17T04:34:40.216Z,95.21
2018-02-17T04:35:40.178Z,96.35
2018-02-17T04:36:40.158Z,96.16
2018-02-17T04:37:40.140Z,96.16
2018-02-17T04:38:40.120Z,96.26
2018-02-17T04:39:40.115Z,96.16
2018-02-17T04:40:40.075Z,96.26
2018-02-17T04:41:40.062Z,96.35
2018-02-17T04:42:40.040Z,95.92
2018-02-17T04:43:40.017Z,95.97
2018-02-17T04:44:40.017Z,95.97
2018-02-17T04:45:39.981Z,95.88
2018-02-17T04:46:39.969Z,96.16
2018-02-17T04:47:39.937Z,96.26
2018-02-17T04:48:39.921Z,96.54
2018-02-17T04:49:39.900Z,97.01
2018-02-17T04:50:39.899Z,96.73
2018-02-17T04:51:39.861Z,96.83
2018-02-17T04:52:39.838Z,96.64
2018-02-17T04:53:39.819Z,96.73
2018-02-17T04:54:39.798Z,96.83
2018-02-17T04:55:39.779Z,96.73
2018-02-17T04:56:39.774Z,96.73
2018-02-17T04:57:39.738Z,96.92
2018-02-17T04:58:39.723Z,96.16
2018-02-17T04:59:40.241Z,96.07
2018-02-17T05:00:39.688Z,96.35
2018-02-17T05:01:39.657Z,96.26
2018-02-17T05:02:39.650Z,96.35
2018-02-17T05:03:39.619Z,96.26
2018-02-17T05:04:39.598Z,96.35
2018-02-17T05:05:39.577Z,96.16
2018-02-17T05:06:39.559Z,96.07
2018-02-17T05:07:39.553Z,96.16
2018-02-17T05:08:39.518Z,96.26
2018-02-17T05:09:39.492Z,96.26
2018-02-17T05:10:39.478Z,96.26
2018-02-17T05:11:39.450Z,96.45
2018-02-17T05:12:39.437Z,96.54
2018-02-17T05:13:39.428Z,96.73
2018-02-17T05:14:39.396Z,96.73
2018-02-17T05:15:39.374Z,96.83
2018-02-17T05:16:39.354Z,96.92
2018-02-17T05:17:39.335Z,96.73
2018-02-17T05:18:39.331Z,96.54
2018-02-17T05:19:39.292Z,96.45
2018-02-17T05:20:39.273Z,96.54
2018-02-17T05:21:39.253Z,96.35
2018-02-17T05:22:41.205Z,96.73
2018-02-17T05:23:39.211Z,96.54
2018-02-17T05:24:39.216Z,96.54
2018-02-17T05:25:39.174Z,97.01
2018-02-17T05:26:39.151Z,96.64
2018-02-17T05:27:39.143Z,97.20
2018-02-17T05:28:39.110Z,96.54
2018-02-17T05:29:39.095Z,96.73
2018-02-17T05:30:39.083Z,96.73
2018-02-17T05:31:39.051Z,96.78
2018-02-17T05:32:39.779Z,96.73
2018-02-17T05:33:39.032Z,96.64
2018-02-17T05:34:38.992Z,96.73
2018-02-17T05:35:38.970Z,96.59
2018-02-17T05:36:38.963Z,96.92
2018-02-17T05:37:38.931Z,96.64
2018-02-17T05:38:38.907Z,96.87
2018-02-17T05:39:38.888Z,96.64
2018-02-17T05:40:38.884Z,96.30
2018-02-17T05:41:38.848Z,97.25
2018-02-17T05:42:38.832Z,97.30
2018-02-17T05:43:38.826Z,97.39
2018-02-17T05:44:38.788Z,97.39
2018-02-17T05:45:38.769Z,97.39
2018-02-17T05:46:38.748Z,97.34
2018-02-17T05:47:38.744Z,97.25
2018-02-17T05:48:38.707Z,97.34
2018-02-17T05:49:38.702Z,97.15
2018-02-17T05:50:38.666Z,97.39
2018-02-17T05:51:38.646Z,97.30
2018-02-17T05:52:38.627Z,96.96
2018-02-17T05:53:38.621Z,97.01
2018-02-17T05:54:38.585Z,96.92
2018-02-17T05:55:38.566Z,97.06
2018-02-17T05:56:38.547Z,97.11
2018-02-17T05:57:38.528Z,97.06
2018-02-17T05:58:38.521Z,97.25
2018-02-17T05:59:38.490Z,96.78
2018-02-17T06:00:38.462Z,97.11
2018-02-17T06:01:38.443Z,96.87
2018-02-17T06:02:38.440Z,97.06
2018-02-17T06:03:38.405Z,97.15
2018-02-17T06:04:38.398Z,97.39
2018-02-17T06:05:38.367Z,97.20
2018-02-17T06:06:38.343Z,97.01
2018-02-17T06:07:38.381Z,97.11
2018-02-17T06:08:38.301Z,97.49
2018-02-17T06:09:38.304Z,97.30
2018-02-17T06:10:40.197Z,96.92
2018-02-17T06:11:38.244Z,97.30
2018-02-17T06:12:38.226Z,97.11
2018-02-17T06:13:38.202Z,97.39
2018-02-17T06:14:38.184Z,96.92
2018-02-17T06:15:38.176Z,97.20
2018-02-17T06:16:38.142Z,97.20
2018-02-17T06:17:38.123Z,97.39
2018-02-17T06:18:38.103Z,96.92
2018-02-17T06:19:38.096Z,97.01
2018-02-17T06:20:38.060Z,97.39
2018-02-17T06:21:38.042Z,97.39
2018-02-17T06:22:38.017Z,97.20
2018-02-17T06:23:38.000Z,96.92
2018-02-17T06:24:37.984Z,96.92
2018-02-17T06:25:38.774Z,96.92
2018-02-17T06:26:37.942Z,96.92
2018-02-17T06:27:37.920Z,97.30
2018-02-17T06:28:39.698Z,97.30
2018-02-17T06:29:37.878Z,97.20
2018-02-17T06:30:37.858Z,97.20
2018-02-17T06:31:37.854Z,97.39
2018-02-17T06:32:37.818Z,97.11
2018-02-17T06:33:37.800Z,96.92
2018-02-17T06:34:37.779Z,97.25
2018-02-17T06:35:37.756Z,97.11
2018-02-17T06:36:37.755Z,97.06
2018-02-17T06:37:37.717Z,97.15
2018-02-17T06:38:37.698Z,97.15
2018-02-17T06:39:37.676Z,97.34
2018-02-17T06:40:37.663Z,97.34
2018-02-17T06:41:37.655Z,97.34
2018-02-17T06:42:37.616Z,97.25
2018-02-17T06:43:37.597Z,97.44
2018-02-17T06:44:37.576Z,96.87
2018-02-17T06:45:37.571Z,97.44
2018-02-17T06:46:38.194Z,97.44
2018-02-17T06:47:37.513Z,97.44
2018-02-17T06:48:37.498Z,97.06
2018-02-17T06:49:37.484Z,97.06
2018-02-17T06:50:37.462Z,97.25
2018-02-17T06:51:37.434Z,97.25
2018-02-17T06:52:37.429Z,97.53
2018-02-17T06:53:37.398Z,97.25
2018-02-17T06:54:37.377Z,97.53
2018-02-17T06:55:37.356Z,97.53
2018-02-17T06:56:37.338Z,97.15
2018-02-17T06:57:37.311Z,97.34
2018-02-17T06:58:38.232Z,97.77
2018-02-17T06:59:37.274Z,97.63
2018-02-17T07:00:37.257Z,97.67
2018-02-17T07:01:37.234Z,98.33
2018-02-17T07:02:37.213Z,97.96
2018-02-17T07:03:37.198Z,97.86
2018-02-17T07:04:37.195Z,98.14
2018-02-17T07:05:37.151Z,97.58
2018-02-17T07:06:37.134Z,97.67
2018-02-17T07:07:37.115Z,97.77
2018-02-17T07:08:37.118Z,97.77
2018-02-17T07:09:37.075Z,97.96
2018-02-17T07:10:37.070Z,96.92
2018-02-17T07:11:37.038Z,97.11
2018-02-17T07:12:37.009Z,97.67
2018-02-17T07:13:36.992Z,97.39
2018-02-17T07:14:36.971Z,97.58
2018-02-17T07:15:36.953Z,97.58
2018-02-17T07:16:36.954Z,97.49
2018-02-17T07:17:36.914Z,96.92
2018-02-17T07:18:36.909Z,96.73
2018-02-17T07:19:36.874Z,97.67
2018-02-17T07:20:36.849Z,96.92
2018-02-17T07:21:57.839Z,96.73
2018-02-17T07:22:36.813Z,96.92
2018-02-17T07:23:36.793Z,96.92
2018-02-17T07:24:36.773Z,96.73
2018-02-17T07:25:36.755Z,97.01
2018-02-17T07:26:36.734Z,97.30
2018-02-17T07:27:37.224Z,97.20
2018-02-17T07:28:36.696Z,97.01
2018-02-17T07:29:36.672Z,97.30
2018-02-17T07:30:36.648Z,97.11
2018-02-17T07:31:36.632Z,97.30
2018-02-17T07:32:36.631Z,96.83
2018-02-17T07:33:36.606Z,96.64
2018-02-17T07:34:36.572Z,96.83
2018-02-17T07:35:36.554Z,96.54
2018-02-17T07:36:36.533Z,96.73
2018-02-17T07:37:36.516Z,96.45
2018-02-17T07:38:36.519Z,96.35
2018-02-17T07:39:36.474Z,96.59
2018-02-17T07:40:36.456Z,96.59
2018-02-17T07:41:36.443Z,95.55
2018-02-17T07:42:36.477Z,95.83
2018-02-17T07:43:36.408Z,95.93
2018-02-17T07:44:36.410Z,95.45
2018-02-17T07:45:36.363Z,95.55
2018-02-17T07:46:36.354Z,95.45
2018-02-17T07:47:36.325Z,95.07
2018-02-17T07:48:36.299Z,95.36
2018-02-17T07:49:36.299Z,95.36
2018-02-17T07:50:36.277Z,94.79
2018-02-17T07:51:36.302Z,94.89
2018-02-17T07:52:36.218Z,94.79
2018-02-17T07:53:36.196Z,94.70
2018-02-17T07:54:36.177Z,95.07
2018-02-17T07:55:36.156Z,94.70
2018-02-17T07:56:36.156Z,94.51
2018-02-17T07:57:36.123Z,94.32
2018-02-17T07:58:36.104Z,94.60
2018-02-17T07:59:36.087Z,94.04
2018-02-17T08:00:36.181Z,94.04
2018-02-17T08:01:36.047Z,94.42
2018-02-17T08:02:36.088Z,94.42
2018-02-17T08:03:36.016Z,94.23
2018-02-17T08:04:35.997Z,94.04
2018-02-17T08:05:35.971Z,94.32
2018-02-17T08:06:35.971Z,93.66
2018-02-17T08:07:35.940Z,93.66
2018-02-17T08:08:37.706Z,93.85
2018-02-17T08:09:35.881Z,93.75
2018-02-17T08:10:35.910Z,93.66
2018-02-17T08:11:36.699Z,93.75
2018-02-17T08:12:35.838Z,93.99
2018-02-17T08:13:35.821Z,93.70
2018-02-17T08:14:35.808Z,93.32
2018-02-17T08:15:35.785Z,93.23
2018-02-17T08:16:35.769Z,93.51
2018-02-17T08:17:35.744Z,93.13
2018-02-17T08:18:56.727Z,93.70
2018-02-17T08:19:35.698Z,93.80
2018-02-17T08:20:35.667Z,93.80
2018-02-17T08:21:35.666Z,93.80
2018-02-17T08:22:35.631Z,94.08
2018-02-17T08:23:35.609Z,93.23
2018-02-17T08:24:35.628Z,93.32
2018-02-17T08:25:35.571Z,93.04
2018-02-17T08:26:35.556Z,92.66
2018-02-17T08:27:35.552Z,92.85
2018-02-17T08:28:35.512Z,93.04
2018-02-17T08:29:35.498Z,92.38
2018-02-17T08:30:35.544Z,92.57
2018-02-17T08:31:35.511Z,92.10
2018-02-17T08:32:35.459Z,92.57
2018-02-17T08:33:35.422Z,92.19
2018-02-17T08:34:35.398Z,92.47
2018-02-17T08:35:35.380Z,91.53
2018-02-17T08:36:35.361Z,92.19
2018-02-17T08:37:35.342Z,92.47
2018-02-17T08:38:35.337Z,91.91
2018-02-17T08:39:35.304Z,91.95
2018-02-17T08:40:35.282Z,92.14
2018-02-17T08:41:35.267Z,91.76
2018-02-17T08:42:35.256Z,92.05
2018-02-17T08:43:35.242Z,91.57
2018-02-17T08:44:35.262Z,91.38
2018-02-17T08:45:35.211Z,91.10
2018-02-17T08:46:35.170Z,91.10
2018-02-17T08:47:35.167Z,90.53
2018-02-17T08:48:35.132Z,90.15
2018-02-17T08:49:35.113Z,90.06
2018-02-17T08:50:35.107Z,89.77
2018-02-17T08:51:35.079Z,89.96
2018-02-17T08:52:35.075Z,90.06
2018-02-17T08:53:35.043Z,89.82
2018-02-17T08:54:35.025Z,89.72
2018-02-17T08:55:35.001Z,89.25
2018-02-17T08:56:34.986Z,89.44
2018-02-17T08:57:34.983Z,89.53
2018-02-17T08:58:34.951Z,89.06
2018-02-17T08:59:34.932Z,88.87
2018-02-17T09:00:34.913Z,88.96
2018-02-17T09:01:34.899Z,88.78
2018-02-17T09:02:34.907Z,88.59
2018-02-17T09:03:34.860Z,88.59
2018-02-17T09:04:34.837Z,87.83
2018-02-17T09:05:34.824Z,87.64
2018-02-17T09:06:34.810Z,87.16
2018-02-17T09:07:34.789Z,87.26
2018-02-17T09:08:34.782Z,86.88
2018-02-17T09:09:34.753Z,87.45
2018-02-17T09:10:34.731Z,87.54
2018-02-17T09:11:34.714Z,87.07
2018-02-17T09:12:34.700Z,86.98
2018-02-17T09:13:34.699Z,86.98
2018-02-17T09:14:34.660Z,86.88
2018-02-17T09:15:34.641Z,86.88
2018-02-17T09:16:34.625Z,86.41
2018-02-17T09:17:34.604Z,86.60
2018-02-17T09:18:34.585Z,86.03
2018-02-17T09:19:34.588Z,86.79
2018-02-17T09:20:34.553Z,87.45
2018-02-17T09:21:34.538Z,86.79
2018-02-17T09:22:34.513Z,86.31
2018-02-17T09:23:34.500Z,86.83
2018-02-17T09:24:45.207Z,86.64
2018-02-17T09:25:34.478Z,86.64
2018-02-17T09:26:34.479Z,86.26
2018-02-17T09:27:35.252Z,85.88
2018-02-17T09:28:34.409Z,85.69
2018-02-17T09:29:34.415Z,85.31
2018-02-17T09:30:34.377Z,84.36
2018-02-17T09:31:34.374Z,84.55
2018-02-17T09:32:34.339Z,84.46
2018-02-17T09:33:34.323Z,84.55
2018-02-17T09:34:34.310Z,84.74
2018-02-17T09:35:34.289Z,84.46
2018-02-17T09:36:34.270Z,84.31
2018-02-17T09:37:55.267Z,83.94
2018-02-17T09:38:34.229Z,84.50
2018-02-17T09:39:34.220Z,84.22
2018-02-17T09:40:34.202Z,83.84
2018-02-17T09:41:34.184Z,83.84
2018-02-17T09:42:34.181Z,83.74
2018-02-17T09:43:34.142Z,83.65
2018-02-17T09:44:34.130Z,83.17
2018-02-17T09:45:34.110Z,83.08
2018-02-17T09:46:34.094Z,82.89
2018-02-17T09:47:34.773Z,82.98
2018-02-17T09:48:34.100Z,82.79
2018-02-17T09:49:34.059Z,82.23
2018-02-17T09:50:34.026Z,81.94
2018-02-17T09:51:34.006Z,82.13
2018-02-17T09:52:34.032Z,81.94
2018-02-17T09:53:33.971Z,83.08
2018-02-17T09:54:33.953Z,82.89
2018-02-17T09:55:33.940Z,82.32
2018-02-17T09:56:33.916Z,82.36
2018-02-17T09:57:33.903Z,82.17
2018-02-17T09:58:33.898Z,81.98
2018-02-17T09:59:33.867Z,82.27
2018-02-17T10:00:33.852Z,82.36
2018-02-17T10:01:33.835Z,82.36
2018-02-17T10:02:36.712Z,82.46
2018-02-17T10:03:33.798Z,81.70
2018-02-17T10:04:34.299Z,81.60
2018-02-17T10:05:35.712Z,81.70
2018-02-17T10:06:33.748Z,81.04
2018-02-17T10:07:33.733Z,81.04
2018-02-17T10:08:34.713Z,80.65
2018-02-17T10:09:33.714Z,80.56
2018-02-17T10:10:33.677Z,80.08
2018-02-17T10:11:34.214Z,80.27
2018-02-17T10:12:33.647Z,80.65
2018-02-17T10:13:33.629Z,79.80
2018-02-17T10:14:33.614Z,80.37
2018-02-17T10:15:33.608Z,80.56
2018-02-17T10:16:33.606Z,80.08
2018-02-17T10:17:33.573Z,80.27
2018-02-17T10:18:33.566Z,80.46
2018-02-17T10:19:35.215Z,79.99
2018-02-17T10:20:33.504Z,80.75
2018-02-17T10:21:33.490Z,81.04
2018-02-17T10:22:34.244Z,80.84
2018-02-17T10:23:33.457Z,81.04
2018-02-17T10:24:33.444Z,81.32
2018-02-17T10:25:33.426Z,82.17
2018-02-17T10:26:33.408Z,81.70
2018-02-17T10:27:33.386Z,81.23
2018-02-17T10:28:35.219Z,80.94
2018-02-17T10:29:33.354Z,81.23
2018-02-17T10:30:33.339Z,80.37
2018-02-17T10:31:33.321Z,80.65
2018-02-17T10:32:35.219Z,80.37
2018-02-17T10:33:33.297Z,80.37
2018-02-17T10:34:33.274Z,80.75
2018-02-17T10:35:33.338Z,80.46
2018-02-17T10:36:33.237Z,80.18
2018-02-17T10:37:33.217Z,80.18
2018-02-17T10:38:33.231Z,80.08
2018-02-17T10:39:33.186Z,80.13
2018-02-17T10:40:34.219Z,80.37
2018-02-17T10:41:33.212Z,80.08
2018-02-17T10:42:33.134Z,80.37
2018-02-17T10:43:33.130Z,80.65
2018-02-17T10:44:33.098Z,80.08
2018-02-17T10:45:33.097Z,80.27
2018-02-17T10:46:33.067Z,81.13
2018-02-17T10:47:33.047Z,80.27
2018-02-17T10:48:33.033Z,80.32
2018-02-17T10:49:33.029Z,80.13
2018-02-17T10:50:32.997Z,80.22
2018-02-17T10:51:32.981Z,79.55
2018-02-17T10:52:32.967Z,78.93
2018-02-17T10:53:33.888Z,78.30
2018-02-17T10:54:54.799Z,77.26
2018-02-17T10:55:32.916Z,76.03
2018-02-17T10:56:32.903Z,75.59
2018-02-17T10:57:32.882Z,73.59
2018-02-17T10:58:32.864Z,72.30
2018-02-17T10:59:32.860Z,71.53
2018-02-17T11:00:32.847Z,70.62
2018-02-17T11:01:32.831Z,69.85
2018-02-17T11:02:32.797Z,69.48
2018-02-17T11:03:32.807Z,68.18
2018-02-17T11:04:32.775Z,66.27
2018-02-17T11:05:32.757Z,65.32
2018-02-17T11:06:32.761Z,63.73
2018-02-17T11:07:32.724Z,63.26
2018-02-17T11:08:32.712Z,62.62
2018-02-17T11:09:32.708Z,62.34
2018-02-17T11:10:32.679Z,61.10
2018-02-17T11:11:32.664Z,59.99
2018-02-17T11:12:32.651Z,59.34
2018-02-17T11:13:33.265Z,57.18
2018-02-17T11:14:32.622Z,55.30
2018-02-17T11:15:32.609Z,53.96
2018-02-17T11:16:32.593Z,53.00
2018-02-17T11:17:32.578Z,52.91
2018-02-17T11:18:32.575Z,53.20
2018-02-17T11:19:32.555Z,53.55
2018-02-17T11:20:32.555Z,54.89
2018-02-17T11:21:32.526Z,55.34
2018-02-17T11:22:32.510Z,55.05
2018-02-17T11:23:32.494Z,55.15
2018-02-17T11:24:32.817Z,55.34
2018-02-17T11:25:32.482Z,55.05
2018-02-17T11:26:32.457Z,54.29
2018-02-17T11:27:32.447Z,54.29
2018-02-17T11:28:32.435Z,54.50
2018-02-17T11:29:32.421Z,54.60
2018-02-17T11:30:32.437Z,54.32
2018-02-17T11:31:32.397Z,53.36
2018-02-17T11:32:32.384Z,52.22
2018-02-17T11:33:32.371Z,51.35
2018-02-17T11:34:32.357Z,50.12
2018-02-17T11:35:32.339Z,50.40
2018-02-17T11:36:32.346Z,50.43
2018-02-17T11:37:32.322Z,49.85
2018-02-17T11:38:32.307Z,49.57
2018-02-17T11:39:32.294Z,49.47
2018-02-17T11:40:32.280Z,49.47
2018-02-17T11:41:32.289Z,48.99
2018-02-17T11:42:32.272Z,49.16
2018-02-17T11:43:32.249Z,48.97
2018-02-17T11:44:32.237Z,48.18
2018-02-17T11:45:32.223Z,48.44
2018-02-17T11:46:32.209Z,48.16
2018-02-17T11:47:32.797Z,49.08
2018-02-17T11:48:32.201Z,50.61
2018-02-17T11:49:32.178Z,51.06
2018-02-17T11:50:32.160Z,51.54
2018-02-17T11:51:32.154Z,52.30
2018-02-17T11:52:32.138Z,52.66
2018-02-17T11:53:32.143Z,53.52
2018-02-17T11:54:32.106Z,53.04
2018-02-17T11:55:32.101Z,51.99
2018-02-17T11:56:32.086Z,52.94
2018-02-17T11:57:32.073Z,53.04
2018-02-17T11:58:32.073Z,53.73
2018-02-17T11:59:32.113Z,53.73
2018-02-17T12:00:32.032Z,53.00
2018-02-17T12:01:32.023Z,51.66
2018-02-17T12:02:32.008Z,51.68
2018-02-17T12:03:31.995Z,50.45
2018-02-17T12:04:31.974Z,50.07
2018-02-17T12:05:31.987Z,48.85
2018-02-17T12:06:31.956Z,48.28
2018-02-17T12:07:32.739Z,48.28
2018-02-17T12:08:31.925Z,49.33
2018-02-17T12:09:31.914Z,48.97
2018-02-17T12:10:31.919Z,48.21
2018-02-17T12:11:31.894Z,46.97
2018-02-17T12:12:31.876Z,47.13
2018-02-17T12:13:32.808Z,46.97
2018-02-17T12:14:31.848Z,46.68
2018-02-17T12:15:31.859Z,46.01
2018-02-17T12:16:31.826Z,45.70
2018-02-17T12:17:31.813Z,45.99
2018-02-17T12:18:31.800Z,45.99
2018-02-17T12:19:31.788Z,45.61
2018-02-17T12:20:31.776Z,45.79
2018-02-17T12:21:31.776Z,45.70
2018-02-17T12:22:31.758Z,46.37
2018-02-17T12:23:31.738Z,45.79
2018-02-17T12:24:31.727Z,45.89
2018-02-17T12:25:32.742Z,45.89
2018-02-17T12:26:31.732Z,45.89
2018-02-17T12:27:32.312Z,46.27
2018-02-17T12:28:31.680Z,45.99
2018-02-17T12:29:32.244Z,45.79
2018-02-17T12:30:31.649Z,45.82
2018-02-17T12:31:31.674Z,45.15
2018-02-17T12:32:31.627Z,44.89
2018-02-17T12:33:31.630Z,44.53
2018-02-17T12:34:31.604Z,43.02
2018-02-17T12:35:31.591Z,41.99
2018-02-17T12:36:31.584Z,40.77
2018-02-17T12:37:31.567Z,39.64
2018-02-17T12:38:32.314Z,38.70
2018-02-17T12:39:31.554Z,38.32
2018-02-17T12:40:31.534Z,37.47
2018-02-17T12:41:31.524Z,36.22
2018-02-17T12:42:31.509Z,35.48
2018-02-17T12:43:31.500Z,35.19
2018-02-17T12:44:31.507Z,35.21
2018-02-17T12:45:31.480Z,35.49
2018-02-17T12:46:31.473Z,35.30
2018-02-17T12:47:31.463Z,33.19
2018-02-17T12:48:31.453Z,33.29
2018-02-17T12:49:31.443Z,32.25
2018-02-17T12:50:31.448Z,31.66
2018-02-17T12:51:31.431Z,32.04
2018-02-17T12:52:33.251Z,32.79